createdAt,value
2018-06-22T00:01:30.842Z,2.70
2018-06-22T00:04:01.289Z,2.52
2018-06-22T00:06:31.792Z,2.50
2018-06-22T00:09:02.164Z,3.02
2018-06-22T00:11:32.539Z,2.50
2018-06-22T00:14:02.946Z,2.35
2018-06-22T00:16:33.261Z,2.42
2018-06-22T00:19:03.927Z,2.40
2018-06-22T00:21:34.304Z,2.52
2018-06-22T00:24:04.720Z,2.08
2018-06-22T00:26:35.206Z,2.33
2018-06-22T00:29:05.601Z,3.42
2018-06-22T00:31:36.613Z,2.67
2018-06-22T00:34:07.035Z,2.40
2018-06-22T00:36:37.506Z,2.47
2018-06-22T00:39:09.787Z,2.10
2018-06-22T00:41:40.232Z,2.10
2018-06-22T00:44:11.354Z,2.70
2018-06-22T00:46:41.483Z,2.90
2018-06-22T00:49:11.848Z,2.33
2018-06-22T00:51:42.259Z,2.95
2018-06-22T00:54:16.249Z,2.47
2018-06-22T00:56:47.690Z,2.60
2018-06-22T00:59:17.901Z,2.40
2018-06-22T01:01:48.148Z,2.40
2018-06-22T01:04:18.510Z,3.22
2018-06-22T01:06:48.975Z,2.40
2018-06-22T01:09:19.330Z,2.90
2018-06-22T01:11:50.765Z,2.90
2018-06-22T01:14:21.117Z,3.45
2018-06-22T01:16:51.495Z,2.85
2018-06-22T01:19:21.944Z,2.25
2018-06-22T01:21:52.346Z,3.05
2018-06-22T01:24:22.773Z,2.65
2018-06-22T01:26:53.111Z,2.67
2018-06-22T01:29:30.157Z,2.70
2018-06-22T01:32:01.759Z,2.60
2018-06-22T01:34:32.237Z,2.80
2018-06-22T01:37:03.374Z,2.00
2018-06-22T01:39:34.397Z,3.02
2018-06-22T01:42:04.830Z,2.83
2018-06-22T01:44:35.365Z,2.30
2018-06-22T01:47:06.409Z,2.50
2018-06-22T01:49:36.877Z,2.43
2018-06-22T01:52:07.262Z,2.90
2018-06-22T01:54:37.767Z,2.33
2018-06-22T01:57:08.188Z,2.77
2018-06-22T01:59:38.648Z,2.30
2018-06-22T02:02:10.186Z,2.80
2018-06-22T02:04:40.714Z,3.27
2018-06-22T02:07:11.794Z,2.12
2018-06-22T02:09:42.271Z,2.87
2018-06-22T02:12:12.640Z,2.95
2018-06-22T02:14:44.436Z,2.33
2018-06-22T02:17:14.862Z,2.45
2018-06-22T02:19:45.202Z,2.20
2018-06-22T02:22:15.379Z,2.50
2018-06-22T02:24:45.677Z,2.90
2018-06-22T02:27:16.133Z,2.45
2018-06-22T02:29:46.565Z,2.40
2018-06-22T02:32:17.101Z,2.25
2018-06-22T02:34:47.556Z,2.20
2018-06-22T02:37:18.030Z,2.10
2018-06-22T02:39:48.380Z,2.77
2018-06-22T02:42:18.894Z,2.50
2018-06-22T02:44:49.335Z,2.15
2018-06-22T02:47:19.757Z,2.50
2018-06-22T02:49:50.131Z,2.52
2018-06-22T02:52:20.629Z,2.50
2018-06-22T02:54:51.032Z,2.62
2018-06-22T02:57:22.493Z,2.50
2018-06-22T02:59:52.982Z,2.33
2018-06-22T03:02:23.383Z,2.62
2018-06-22T03:04:54.040Z,2.60
2018-06-22T03:07:24.521Z,2.65
2018-06-22T03:09:55.195Z,2.37
2018-06-22T03:12:26.141Z,2.95
2018-06-22T03:14:56.640Z,2.40
2018-06-22T03:17:26.765Z,2.70
2018-06-22T03:19:57.195Z,2.92
2018-06-22T03:22:27.341Z,2.95
2018-06-22T03:24:58.566Z,2.60
2018-06-22T03:27:29.036Z,2.85
2018-06-22T03:29:59.403Z,2.75
2018-06-22T03:32:29.854Z,2.40
2018-06-22T03:35:00.369Z,3.10
2018-06-22T03:37:31.735Z,2.53
2018-06-22T03:40:02.157Z,2.70
2018-06-22T03:42:32.637Z,3.60
2018-06-22T03:45:03.247Z,3.20
2018-06-22T03:47:33.560Z,2.83
2018-06-22T03:50:04.169Z,2.60
2018-06-22T03:52:34.623Z,3.05
2018-06-22T03:55:05.163Z,3.80
2018-06-22T03:57:35.638Z,2.47
2018-06-22T04:00:05.794Z,2.65
2018-06-22T04:02:36.104Z,3.20
2018-06-22T04:05:06.565Z,3.00
2018-06-22T04:07:37.098Z,2.45
2018-06-22T04:10:07.704Z,3.35
2018-06-22T04:12:38.200Z,3.35
2018-06-22T04:15:08.701Z,3.30
2018-06-22T04:17:49.658Z,2.92
2018-06-22T04:20:21.665Z,3.35
2018-06-22T04:22:52.879Z,3.20
2018-06-22T04:25:24.975Z,3.10
2018-06-22T04:27:55.507Z,3.17
2018-06-22T04:30:26.104Z,3.10
2018-06-22T04:32:56.730Z,2.83
2018-06-22T04:35:27.221Z,2.90
2018-06-22T04:37:57.719Z,3.58
2018-06-22T04:40:28.282Z,3.10
2018-06-22T04:42:58.693Z,3.12
2018-06-22T04:45:29.152Z,2.50
2018-06-22T04:47:59.678Z,2.70
2018-06-22T04:50:30.159Z,3.30
2018-06-22T04:53:00.610Z,3.35
2018-06-22T04:55:31.188Z,2.42
2018-06-22T04:58:01.689Z,2.20
2018-06-22T05:00:32.158Z,3.37
2018-06-22T05:03:02.567Z,3.35
2018-06-22T05:05:33.123Z,2.67
2018-06-22T05:08:03.757Z,2.43
2018-06-22T05:10:34.207Z,2.55
2018-06-22T05:13:04.855Z,4.20
2018-06-22T05:15:35.316Z,2.47
2018-06-22T05:18:06.852Z,2.60
2018-06-22T05:20:37.357Z,2.58
2018-06-22T05:23:08.471Z,2.97
2018-06-22T05:25:38.920Z,2.35
2018-06-22T05:28:09.285Z,2.30
2018-06-22T05:30:40.359Z,2.12
2018-06-22T05:33:10.765Z,2.47
2018-06-22T05:35:41.220Z,2.92
2018-06-22T05:38:11.746Z,2.75
2018-06-22T05:40:42.245Z,2.42
2018-06-22T05:43:12.629Z,3.00
2018-06-22T05:45:43.142Z,2.77
2018-06-22T05:48:13.603Z,3.50
2018-06-22T05:50:44.103Z,2.35
2018-06-22T05:53:14.540Z,2.65
2018-06-22T05:55:45.035Z,3.05
2018-06-22T05:58:16.344Z,3.00
2018-06-22T06:00:46.851Z,3.00
2018-06-22T06:03:17.213Z,3.17
2018-06-22T06:05:47.645Z,3.00
2018-06-22T06:08:18.077Z,3.25
2018-06-22T06:10:48.580Z,2.90
2018-06-22T06:13:19.071Z,2.30
2018-06-22T06:15:49.573Z,2.42
2018-06-22T06:18:20.036Z,2.17
2018-06-22T06:20:50.525Z,2.47
2018-06-22T06:23:21.077Z,3.25
2018-06-22T06:25:51.664Z,2.25
2018-06-22T06:28:22.159Z,2.45
2018-06-22T06:30:53.743Z,2.60
2018-06-22T06:33:24.245Z,2.17
2018-06-22T06:35:55.458Z,2.52
2018-06-22T06:38:26.820Z,2.45
2018-06-22T06:40:57.345Z,2.95
2018-06-22T06:43:27.879Z,2.60
2018-06-22T06:45:58.288Z,1.90
2018-06-22T06:48:28.836Z,2.40
2018-06-22T06:50:59.250Z,2.00
2018-06-22T06:53:29.694Z,2.22
2018-06-22T06:56:00.517Z,2.35
2018-06-22T06:58:30.991Z,2.35
2018-06-22T07:01:01.397Z,1.77
2018-06-22T07:03:31.862Z,2.00
2018-06-22T07:06:02.289Z,2.05
2018-06-22T07:08:32.833Z,2.45
2018-06-22T07:11:03.259Z,2.40
2018-06-22T07:13:33.644Z,2.40
2018-06-22T07:16:04.088Z,2.45
2018-06-22T07:18:34.519Z,2.45
2018-06-22T07:21:04.948Z,1.85
2018-06-22T07:23:36.268Z,2.15
2018-06-22T07:26:06.685Z,2.10
2018-06-22T07:28:37.134Z,1.95
2018-06-22T07:31:07.633Z,2.60
2018-06-22T07:33:38.081Z,2.00
2018-06-22T07:36:08.605Z,2.00
2018-06-22T07:38:39.056Z,1.80
2018-06-22T07:41:09.448Z,2.40
2018-06-22T07:43:39.887Z,2.12
2018-06-22T07:46:10.217Z,3.02
2018-06-22T07:48:40.724Z,1.80
2018-06-22T07:51:11.145Z,1.50
2018-06-22T07:53:41.623Z,2.15
2018-06-22T07:56:12.075Z,1.90
2018-06-22T07:58:42.457Z,1.75
2018-06-22T08:01:12.977Z,1.75
2018-06-22T08:03:43.485Z,1.92
2018-06-22T08:06:14.003Z,2.17
2018-06-22T08:08:44.313Z,1.80
2018-06-22T08:11:14.810Z,2.12
2018-06-22T08:13:45.309Z,2.17
2018-06-22T08:16:15.745Z,1.82
2018-06-22T08:18:46.615Z,2.02
2018-06-22T08:21:17.091Z,1.65
2018-06-22T08:23:47.557Z,2.45
2018-06-22T08:26:18.964Z,2.00
2018-06-22T08:28:49.684Z,2.12
2018-06-22T08:31:20.189Z,2.02
2018-06-22T08:33:50.689Z,1.85
2018-06-22T08:36:21.121Z,1.60
2018-06-22T08:38:51.571Z,1.42
2018-06-22T08:41:22.013Z,2.20
2018-06-22T08:43:52.491Z,2.27
2018-06-22T08:46:22.958Z,1.90
2018-06-22T08:48:53.570Z,1.85
2018-06-22T08:51:23.977Z,1.75
2018-06-22T08:53:54.493Z,1.60
2018-06-22T08:56:25.038Z,1.60
2018-06-22T08:58:55.565Z,1.90
2018-06-22T09:01:26.888Z,2.35
2018-06-22T09:03:57.387Z,1.93
2018-06-22T09:06:27.832Z,1.82
2018-06-22T09:08:58.809Z,1.95
2018-06-22T09:11:29.522Z,1.72
2018-06-22T09:13:59.955Z,1.70
2018-06-22T09:16:30.413Z,1.85
2018-06-22T09:19:00.832Z,2.20
2018-06-22T09:21:31.266Z,1.80
2018-06-22T09:24:01.628Z,2.30
2018-06-22T09:26:32.105Z,2.10
2018-06-22T09:29:02.519Z,2.35
2018-06-22T09:31:32.946Z,2.00
2018-06-22T09:34:03.370Z,2.40
2018-06-22T09:36:33.745Z,2.15
2018-06-22T09:39:04.771Z,1.90
2018-06-22T09:41:35.220Z,1.87
2018-06-22T09:44:05.808Z,1.65
2018-06-22T09:46:36.339Z,2.20
2018-06-22T09:49:06.758Z,2.20
2018-06-22T09:51:37.101Z,1.90
2018-06-22T09:54:08.035Z,2.27
2018-06-22T09:56:38.493Z,2.40
2018-06-22T09:59:08.976Z,1.82
2018-06-22T10:01:39.930Z,1.92
2018-06-22T10:04:10.404Z,1.90
2018-06-22T10:06:41.261Z,2.20
2018-06-22T10:09:13.466Z,2.10
2018-06-22T10:11:43.967Z,2.35
2018-06-22T10:14:14.428Z,2.02
2018-06-22T10:16:44.929Z,2.50
2018-06-22T10:19:15.135Z,1.75
2018-06-22T10:21:45.478Z,2.10
2018-06-22T10:24:15.600Z,2.20
2018-06-22T10:26:45.920Z,2.08
2018-06-22T10:29:16.404Z,2.77
2018-06-22T10:31:46.894Z,2.20
2018-06-22T10:34:17.364Z,1.80
2018-06-22T10:36:47.812Z,2.05
2018-06-22T10:39:18.493Z,1.93
2018-06-22T10:41:48.894Z,2.12
2018-06-22T10:44:19.379Z,1.62
2018-06-22T10:46:49.872Z,2.52
2018-06-22T10:49:21.210Z,1.75
2018-06-22T10:51:51.669Z,2.27
2018-06-22T10:54:22.117Z,1.77
2018-06-22T10:56:52.649Z,2.85
2018-06-22T10:59:23.209Z,2.27
2018-06-22T11:01:54.065Z,2.45
2018-06-22T11:04:24.529Z,2.22
2018-06-22T11:06:55.131Z,2.05
2018-06-22T11:09:26.228Z,2.20
2018-06-22T11:11:57.203Z,2.05
2018-06-22T11:14:27.683Z,1.92
2018-06-22T11:16:58.209Z,1.75
2018-06-22T11:19:29.304Z,2.25
2018-06-22T11:21:59.757Z,2.10
2018-06-22T11:24:30.316Z,2.37
2018-06-22T11:27:00.691Z,2.65
2018-06-22T11:29:31.437Z,2.10
2018-06-22T11:32:01.752Z,2.52
2018-06-22T11:34:32.907Z,2.10
2018-06-22T11:37:03.628Z,2.15
2018-06-22T11:39:34.152Z,2.12
2018-06-22T11:42:04.833Z,2.30
2018-06-22T11:44:35.288Z,2.15
2018-06-22T11:47:05.785Z,2.12
2018-06-22T11:49:36.255Z,2.22
2018-06-22T11:52:06.964Z,1.95
2018-06-22T11:54:37.489Z,2.00
2018-06-22T11:57:08.388Z,2.60
2018-06-22T11:59:39.924Z,2.40
2018-06-22T12:02:10.529Z,2.70
2018-06-22T12:04:41.074Z,2.25
2018-06-22T12:07:12.457Z,1.92
2018-06-22T12:09:42.827Z,2.33
2018-06-22T12:12:13.209Z,1.90
2018-06-22T12:14:43.595Z,2.45
2018-06-22T12:17:13.822Z,2.30
2018-06-22T12:19:44.388Z,1.98
2018-06-22T12:22:15.013Z,3.08
2018-06-22T12:24:45.545Z,2.20
2018-06-22T12:27:15.922Z,2.55
2018-06-22T12:29:46.365Z,2.30
2018-06-22T12:32:17.402Z,2.50
2018-06-22T12:34:48.697Z,2.33
2018-06-22T12:37:19.144Z,3.00
2018-06-22T12:39:49.589Z,1.80
2018-06-22T12:42:20.006Z,2.12
2018-06-22T12:44:50.441Z,2.50
2018-06-22T12:47:22.023Z,2.02
2018-06-22T12:49:52.465Z,2.55
2018-06-22T12:52:22.942Z,2.05
2018-06-22T12:54:53.936Z,2.00
2018-06-22T12:57:24.459Z,1.85
2018-06-22T12:59:54.941Z,2.08
2018-06-22T13:02:25.450Z,2.22
2018-06-22T13:04:55.810Z,1.70
2018-06-22T13:07:26.275Z,1.80
2018-06-22T13:09:56.772Z,1.87
2018-06-22T13:12:27.183Z,2.42
2018-06-22T13:14:57.716Z,1.98
2018-06-22T13:17:28.072Z,2.50
2018-06-22T13:19:58.677Z,3.00
2018-06-22T13:22:29.434Z,2.17
2018-06-22T13:24:59.812Z,2.12
2018-06-22T13:27:30.370Z,2.15
2018-06-22T13:30:01.781Z,2.20
2018-06-22T13:32:32.196Z,2.20
2018-06-22T13:35:02.762Z,1.92
2018-06-22T13:37:33.213Z,1.90
2018-06-22T13:40:03.734Z,2.22
2018-06-22T13:42:34.143Z,2.00
2018-06-22T13:45:04.660Z,1.87
2018-06-22T13:47:35.158Z,1.98
2018-06-22T13:50:05.729Z,2.00
2018-06-22T13:52:36.080Z,1.98
2018-06-22T13:55:06.649Z,1.90
2018-06-22T13:57:37.171Z,1.90
2018-06-22T14:00:07.691Z,1.80
2018-06-22T14:02:38.338Z,1.85
2018-06-22T14:05:13.910Z,1.90
2018-06-22T14:07:44.363Z,2.00
2018-06-22T14:10:14.745Z,2.10
2018-06-22T14:12:45.245Z,1.92
2018-06-22T14:15:15.416Z,1.80
2018-06-22T14:17:45.698Z,1.85
2018-06-22T14:20:16.266Z,1.98
2018-06-22T14:22:46.867Z,1.47
2018-06-22T14:25:17.352Z,1.65
2018-06-22T14:27:47.820Z,1.95
2018-06-22T14:30:18.985Z,1.72
2018-06-22T14:32:49.642Z,1.82
2018-06-22T14:35:20.467Z,1.85
2018-06-22T14:37:51.028Z,1.70
2018-06-22T14:40:21.456Z,1.55
2018-06-22T14:42:52.691Z,1.70
2018-06-22T14:45:23.179Z,1.90
2018-06-22T14:47:53.742Z,1.80
2018-06-22T14:50:24.194Z,1.85
2018-06-22T14:52:54.703Z,2.00
2018-06-22T14:55:30.429Z,2.02
2018-06-22T14:58:06.031Z,1.60
2018-06-22T15:00:41.606Z,1.95
2018-06-22T15:03:17.270Z,1.70
2018-06-22T15:05:52.893Z,2.10
2018-06-22T15:08:24.292Z,2.05
2018-06-22T15:10:55.221Z,1.47
2018-06-22T15:13:25.670Z,1.92
2018-06-22T15:16:00.089Z,2.00
2018-06-22T15:18:30.516Z,1.75
2018-06-22T15:21:01.017Z,1.92
2018-06-22T15:23:31.500Z,1.90
2018-06-22T15:26:02.047Z,1.90
2018-06-22T15:28:32.501Z,1.70
2018-06-22T15:31:02.962Z,1.80
2018-06-22T15:33:38.541Z,1.92
2018-06-22T15:36:14.331Z,1.90
2018-06-22T15:38:50.121Z,2.08
2018-06-22T15:41:25.689Z,1.98
2018-06-22T15:44:01.093Z,1.85
2018-06-22T15:46:36.702Z,2.27
2018-06-22T15:49:12.248Z,1.77
2018-06-22T15:51:47.729Z,1.80
2018-06-22T15:54:23.326Z,2.22
2018-06-22T15:56:53.803Z,2.27
2018-06-22T15:59:24.263Z,2.60
2018-06-22T16:01:59.151Z,1.77
2018-06-22T16:04:29.629Z,1.90
2018-06-22T16:07:00.085Z,2.65
2018-06-22T16:09:30.751Z,2.00
2018-06-22T16:12:33.734Z,2.12
2018-06-22T16:15:10.849Z,2.20
2018-06-22T16:17:46.434Z,2.08
2018-06-22T16:20:22.089Z,1.92
2018-06-22T16:22:57.560Z,1.85
2018-06-22T16:25:33.333Z,2.25
2018-06-22T16:28:04.904Z,2.30
2018-06-22T16:30:35.486Z,1.95
2018-06-22T16:33:05.957Z,2.58
2018-06-22T16:35:36.550Z,2.45
2018-06-22T16:38:07.114Z,2.05
2018-06-22T16:40:37.715Z,1.85
2018-06-22T16:43:08.300Z,2.05
2018-06-22T16:45:38.840Z,2.25
2018-06-22T16:48:09.576Z,1.87
2018-06-22T16:50:40.052Z,1.70
2018-06-22T16:53:10.611Z,2.12
2018-06-22T16:55:41.057Z,2.00
2018-06-22T16:58:16.703Z,2.17
2018-06-22T17:00:47.197Z,2.45
2018-06-22T17:03:17.604Z,2.05
2018-06-22T17:05:48.036Z,2.30
2018-06-22T17:08:23.708Z,2.15
2018-06-22T17:10:59.202Z,2.47
2018-06-22T17:13:35.456Z,2.60
2018-06-22T17:16:11.386Z,1.85
2018-06-22T17:18:47.081Z,2.00
2018-06-22T17:21:17.519Z,1.60
2018-06-22T17:23:48.265Z,2.05
2018-06-22T17:26:20.355Z,2.00
2018-06-22T17:28:50.939Z,2.60
2018-06-22T17:31:21.481Z,2.60
2018-06-22T17:33:52.015Z,2.35
2018-06-22T17:36:23.590Z,2.60
2018-06-22T17:38:54.078Z,2.05
2018-06-22T17:41:24.533Z,1.80
2018-06-22T17:43:54.969Z,2.00
2018-06-22T17:46:25.670Z,1.98
2018-06-22T17:48:56.480Z,1.70
2018-06-22T17:51:27.014Z,2.40
2018-06-22T17:53:58.667Z,2.08
2018-06-22T17:56:30.931Z,2.00
2018-06-22T17:59:06.994Z,2.30
2018-06-22T18:01:42.533Z,2.15
2018-06-22T18:04:18.303Z,2.37
2018-06-22T18:06:54.420Z,2.37
2018-06-22T18:09:30.327Z,2.70
2018-06-22T18:12:06.195Z,2.30
2018-06-22T18:14:36.688Z,2.00
2018-06-22T18:17:07.077Z,2.27
2018-06-22T18:19:37.579Z,2.27
2018-06-22T18:22:08.890Z,1.80
2018-06-22T18:24:39.138Z,2.25
2018-06-22T18:27:09.765Z,3.08
2018-06-22T18:29:40.465Z,1.95
2018-06-22T18:32:10.994Z,2.60
2018-06-22T18:34:41.562Z,2.50
2018-06-22T18:37:12.828Z,2.37
2018-06-22T18:39:43.413Z,2.70
2018-06-22T18:42:14.041Z,2.10
2018-06-22T18:44:44.632Z,2.42
2018-06-22T18:47:19.950Z,2.20
2018-06-22T18:49:50.886Z,2.72
2018-06-22T18:52:27.052Z,2.15
2018-06-22T18:55:03.852Z,2.42
2018-06-22T19:00:52.397Z,2.50
2018-06-22T19:03:29.808Z,2.05
2018-06-22T19:06:00.324Z,2.30
2018-06-22T19:08:30.791Z,2.87
2018-06-22T19:11:01.279Z,2.55
2018-06-22T19:13:31.701Z,2.30
2018-06-22T19:16:02.221Z,2.37
2018-06-22T19:18:33.072Z,2.45
2018-06-22T19:21:03.646Z,2.85
2018-06-22T19:23:34.549Z,2.55
2018-06-22T19:26:05.567Z,3.58
2018-06-22T19:28:36.087Z,2.35
2018-06-22T19:31:07.464Z,2.72
2018-06-22T19:33:38.032Z,2.52
2018-06-22T19:36:08.520Z,1.92
2018-06-22T19:38:39.233Z,2.45
2018-06-22T19:41:09.812Z,3.50
2018-06-22T19:43:45.330Z,2.37
2018-06-22T19:46:20.865Z,3.00
2018-06-22T19:48:56.378Z,3.15
2018-06-22T19:51:31.918Z,2.55
2018-06-22T19:54:06.052Z,2.40
2018-06-22T19:56:36.764Z,3.30
2018-06-22T19:59:07.263Z,2.37
2018-06-22T20:01:38.235Z,2.72
2018-06-22T20:04:08.938Z,4.12
2018-06-22T20:06:39.334Z,3.10
2018-06-22T20:09:11.331Z,3.45
2018-06-22T20:11:42.008Z,3.10
2018-06-22T20:14:13.277Z,2.65
2018-06-22T20:16:44.049Z,3.05
2018-06-22T20:19:14.675Z,3.30
2018-06-22T20:21:45.190Z,2.98
2018-06-22T20:24:19.734Z,3.10
2018-06-22T20:26:50.272Z,3.47
2018-06-22T20:29:21.642Z,3.00
2018-06-22T20:31:52.135Z,4.55
2018-06-22T20:34:28.085Z,3.25
2018-06-22T20:37:03.629Z,3.25
2018-06-22T20:39:40.209Z,3.70
2018-06-22T20:42:16.036Z,3.83
2018-06-22T20:44:52.139Z,3.10
2018-06-22T20:47:27.757Z,3.27
2018-06-22T20:50:03.402Z,4.22
2018-06-22T20:52:34.571Z,3.37
2018-06-22T20:55:05.577Z,3.40
2018-06-22T20:57:36.772Z,4.20
2018-06-22T21:00:08.570Z,3.02
2018-06-22T21:02:39.985Z,3.55
2018-06-22T21:05:11.682Z,3.37
2018-06-22T21:07:42.822Z,3.27
2018-06-22T21:10:13.411Z,3.70
2018-06-22T21:12:44.222Z,3.00
2018-06-22T21:15:14.911Z,3.40
2018-06-22T21:17:45.511Z,3.10
2018-06-22T21:20:15.981Z,3.75
2018-06-22T21:22:46.557Z,3.65
2018-06-22T21:25:17.293Z,3.02
2018-06-22T21:27:53.003Z,2.72
2018-06-22T21:30:28.577Z,2.70
2018-06-22T21:33:05.511Z,3.50
2018-06-22T21:35:42.339Z,4.03
2018-06-22T21:38:18.781Z,2.90
2018-06-22T21:40:50.894Z,3.10
2018-06-22T21:43:21.896Z,3.40
2018-06-22T21:45:52.734Z,3.35
2018-06-22T21:48:23.183Z,3.85
2018-06-22T21:50:53.655Z,2.72
2018-06-22T21:53:24.134Z,3.98
2018-06-22T21:55:54.626Z,3.10
2018-06-22T21:58:25.127Z,3.50
2018-06-22T22:00:55.631Z,3.90
2018-06-22T22:03:26.076Z,3.42
2018-06-22T22:05:56.560Z,3.70
2018-06-22T22:08:27.015Z,2.87
2018-06-22T22:11:02.713Z,3.52
2018-06-22T22:13:33.158Z,3.67
2018-06-22T22:16:03.656Z,3.30
2018-06-22T22:18:34.275Z,3.35
2018-06-22T22:21:04.983Z,3.10
2018-06-22T22:23:36.517Z,3.15
2018-06-22T22:26:07.215Z,3.20
2018-06-22T22:28:38.214Z,3.90
2018-06-22T22:31:08.694Z,4.08
2018-06-22T22:33:39.957Z,4.37
2018-06-22T22:36:10.438Z,4.20
2018-06-22T22:38:40.858Z,3.92
2018-06-22T22:41:12.023Z,3.50
2018-06-22T22:43:42.406Z,3.75
2018-06-22T22:46:12.868Z,4.15
2018-06-22T22:48:43.428Z,3.60
2018-06-22T22:51:14.002Z,3.47
2018-06-22T22:53:44.557Z,3.50
2018-06-22T22:56:15.032Z,3.58
2018-06-22T22:58:45.412Z,3.75
2018-06-22T23:01:15.875Z,3.62
2018-06-22T23:03:46.408Z,4.37
2018-06-22T23:06:16.906Z,4.75
2018-06-22T23:08:47.387Z,3.77
2018-06-22T23:11:17.851Z,3.80
2018-06-22T23:13:48.693Z,3.95
2018-06-22T23:16:19.299Z,3.40
2018-06-22T23:18:49.712Z,3.77
2018-06-22T23:21:20.211Z,3.98
2018-06-22T23:23:50.615Z,4.10
2018-06-22T23:26:21.688Z,4.90
2018-06-22T23:28:52.219Z,4.70
2018-06-22T23:31:22.758Z,4.60
2018-06-22T23:33:53.197Z,4.28
2018-06-22T23:36:23.971Z,4.90
2018-06-22T23:38:54.613Z,4.33
2018-06-22T23:41:26.222Z,4.22
2018-06-22T23:43:56.811Z,4.62
2018-06-22T23:46:27.363Z,4.25
2018-06-22T23:48:58.204Z,5.50
2018-06-22T23:51:29.401Z,3.50
2018-06-22T23:53:59.917Z,4.12
2018-06-22T23:56:31.127Z,4.47
2018-06-22T23:59:01.683Z,3.95
